createdAt,value
2019-02-11T00:00:13.992Z,89.30
2019-02-11T00:04:22.048Z,89.30
2019-02-11T00:08:31.893Z,89.10
2019-02-11T00:12:39.788Z,88.30
2019-02-11T00:16:46.528Z,88.00
2019-02-11T00:20:53.301Z,88.60
2019-02-11T00:24:59.779Z,88.50
2019-02-11T00:29:07.423Z,88.10
2019-02-11T00:33:16.133Z,88.30
2019-02-11T00:37:22.692Z,88.50
2019-02-11T00:41:28.978Z,88.70
2019-02-11T00:45:37.095Z,90.60
2019-02-11T00:49:43.824Z,88.90
2019-02-11T00:57:58.937Z,88.70
2019-02-11T01:02:08.360Z,89.10
2019-02-11T01:06:33.881Z,90.00
2019-02-11T01:10:40.582Z,90.20
2019-02-11T01:14:46.935Z,90.70
2019-02-11T01:18:54.283Z,90.80
2019-02-11T01:23:00.801Z,90.90
2019-02-11T01:27:08.820Z,91.40
2019-02-11T01:31:15.266Z,92.20
2019-02-11T01:35:22.173Z,91.50
2019-02-11T01:39:32.062Z,91.90
2019-02-11T01:43:37.849Z,92.10
2019-02-11T01:47:45.652Z,92.30
2019-02-11T01:51:55.115Z,92.30
2019-02-11T01:56:02.989Z,92.30
2019-02-11T02:00:14.311Z,92.50
2019-02-11T02:04:20.723Z,93.10
2019-02-11T02:08:28.571Z,92.90
2019-02-11T02:12:35.940Z,94.40
2019-02-11T02:16:43.890Z,94.20
2019-02-11T02:20:51.713Z,94.80
2019-02-11T02:25:05.056Z,95.10
2019-02-11T02:29:14.874Z,95.40
2019-02-11T02:33:21.545Z,95.20
2019-02-11T02:37:27.854Z,95.10
2019-02-11T02:41:42.281Z,95.30
2019-02-11T02:50:00.508Z,96.00
2019-02-11T02:54:06.898Z,96.50
2019-02-11T02:58:14.568Z,96.60
2019-02-11T03:02:21.152Z,96.40
2019-02-11T03:06:27.706Z,96.30
2019-02-11T03:10:35.165Z,96.60
2019-02-11T03:14:42.216Z,97.00
2019-02-11T03:18:48.504Z,97.00
2019-02-11T03:23:18.236Z,97.50
2019-02-11T03:27:24.577Z,97.90
2019-02-11T03:31:34.373Z,98.00
2019-02-11T03:35:40.776Z,97.90
2019-02-11T03:39:47.640Z,98.10
2019-02-11T03:43:57.555Z,98.10
2019-02-11T03:48:04.225Z,98.30
2019-02-11T03:52:16.777Z,98.60
2019-02-11T03:56:23.423Z,97.80
2019-02-11T04:00:35.110Z,97.60
2019-02-11T04:04:42.134Z,97.60
2019-02-11T04:08:48.708Z,97.50
2019-02-11T04:12:55.909Z,98.80
2019-02-11T04:17:02.725Z,97.50
2019-02-11T04:21:12.078Z,97.60
2019-02-11T04:25:20.389Z,97.40
2019-02-11T04:29:27.863Z,97.40
2019-02-11T04:33:33.555Z,97.40
2019-02-11T04:37:41.640Z,97.70
2019-02-11T04:41:48.001Z,97.90
2019-02-11T04:45:55.884Z,98.10
2019-02-11T04:50:02.208Z,97.90
2019-02-11T04:58:19.823Z,97.50
2019-02-11T05:02:26.360Z,97.10
2019-02-11T05:11:41.376Z,96.70
2019-02-11T05:15:47.783Z,96.90
2019-02-11T05:19:55.480Z,96.70
2019-02-11T05:24:05.717Z,96.60
2019-02-11T05:28:15.676Z,96.50
2019-02-11T05:32:22.125Z,96.70
2019-02-11T05:36:28.764Z,96.70
2019-02-11T05:40:35.194Z,97.60
2019-02-11T05:44:53.273Z,96.00
2019-02-11T05:48:53.837Z,96.30
2019-02-11T05:53:00.476Z,96.00
2019-02-11T05:57:07.413Z,95.80
2019-02-11T06:01:20.800Z,95.70
2019-02-11T06:05:27.403Z,95.60
2019-02-11T06:09:37.111Z,95.50
2019-02-11T06:13:44.162Z,95.40
2019-02-11T06:17:52.487Z,95.60
2019-02-11T06:21:58.921Z,95.70
2019-02-11T06:26:06.955Z,95.40
2019-02-11T06:30:13.773Z,95.40
2019-02-11T06:34:21.111Z,95.20
2019-02-11T06:38:27.729Z,95.30
2019-02-11T06:42:36.373Z,95.10
2019-02-11T06:46:42.680Z,95.10
2019-02-11T06:50:52.459Z,95.00
2019-02-11T06:54:57.895Z,94.80
2019-02-11T06:59:05.913Z,95.50
2019-02-11T07:03:13.653Z,95.10
2019-02-11T07:07:21.430Z,94.90
2019-02-11T07:11:27.794Z,94.80
2019-02-11T07:15:35.933Z,94.90
2019-02-11T07:19:42.277Z,95.60
2019-02-11T07:23:49.764Z,94.70
2019-02-11T07:27:57.803Z,94.40
2019-02-11T07:32:04.508Z,94.10
2019-02-11T07:36:12.179Z,94.00
2019-02-11T07:40:19.627Z,94.00
2019-02-11T07:44:32.385Z,93.50
2019-02-11T07:48:39.032Z,93.20
2019-02-11T07:52:45.331Z,93.10
2019-02-11T07:56:54.692Z,92.70
2019-02-11T08:01:01.666Z,92.90
2019-02-11T08:05:08.206Z,92.90
2019-02-11T08:09:15.421Z,92.70
2019-02-11T08:13:23.102Z,92.70
2019-02-11T08:21:39.719Z,92.50
2019-02-11T08:25:47.374Z,92.70
2019-02-11T08:30:34.095Z,92.30
2019-02-11T08:34:40.521Z,92.30
2019-02-11T08:38:47.001Z,91.90
2019-02-11T08:42:55.806Z,91.70
2019-02-11T08:47:02.533Z,91.50
2019-02-11T08:51:13.315Z,91.40
2019-02-11T08:55:22.469Z,91.80
2019-02-11T08:59:29.638Z,91.80
2019-02-11T09:03:47.153Z,91.50
2019-02-11T09:07:53.826Z,91.10
2019-02-11T09:12:01.822Z,91.40
2019-02-11T09:16:08.087Z,90.80
2019-02-11T09:20:17.145Z,90.60
2019-02-11T09:24:23.472Z,90.90
2019-02-11T09:28:29.940Z,91.00
2019-02-11T09:32:39.952Z,90.60
2019-02-11T09:36:47.129Z,90.50
2019-02-11T09:40:54.116Z,90.70
2019-02-11T09:45:02.866Z,89.70
2019-02-11T09:49:09.226Z,89.20
2019-02-11T09:53:16.547Z,90.10
2019-02-11T09:57:22.964Z,88.30
2019-02-11T10:01:29.477Z,87.20
2019-02-11T10:05:37.392Z,86.90
2019-02-11T10:09:44.182Z,88.20
2019-02-11T10:13:55.306Z,89.40
2019-02-11T10:18:03.270Z,85.70
2019-02-11T10:22:09.698Z,86.40
2019-02-11T10:26:40.275Z,88.00
2019-02-11T10:30:46.646Z,86.00
2019-02-11T10:35:14.974Z,84.10
2019-02-11T10:39:21.404Z,83.20
2019-02-11T10:43:28.084Z,81.60
2019-02-11T10:47:35.981Z,82.60
2019-02-11T10:51:42.633Z,79.80
2019-02-11T10:55:48.924Z,80.20
2019-02-11T10:59:57.346Z,82.30
2019-02-11T11:04:03.710Z,81.10
2019-02-11T11:08:12.623Z,80.50
2019-02-11T11:12:19.945Z,80.90
2019-02-11T11:16:29.843Z,81.70
2019-02-11T11:20:37.708Z,81.50
2019-02-11T11:24:46.356Z,81.10
2019-02-11T11:28:55.049Z,81.20
2019-02-11T11:33:02.911Z,81.30
2019-02-11T11:37:09.565Z,81.30
2019-02-11T11:41:15.772Z,81.30
2019-02-11T11:45:23.109Z,80.80
2019-02-11T11:49:32.163Z,79.70
2019-02-11T11:53:40.078Z,79.80
2019-02-11T11:57:46.660Z,80.20
2019-02-11T12:01:57.373Z,80.70
2019-02-11T12:06:05.116Z,81.30
2019-02-11T12:10:13.837Z,80.90
2019-02-11T12:14:20.782Z,83.60
2019-02-11T12:18:28.676Z,86.30
2019-02-11T12:22:57.076Z,89.80
2019-02-11T12:27:03.452Z,90.30
2019-02-11T12:31:11.768Z,93.20
2019-02-11T12:35:13.645Z,93.90
2019-02-11T12:39:20.831Z,94.50
2019-02-11T12:43:29.522Z,94.20
2019-02-11T12:47:36.764Z,94.80
2019-02-11T12:51:43.049Z,94.60
2019-02-11T12:55:51.936Z,95.40
2019-02-11T12:59:58.517Z,95.80
2019-02-11T13:04:06.215Z,95.90
2019-02-11T13:08:14.201Z,96.40
2019-02-11T13:12:21.068Z,95.80
2019-02-11T13:16:28.539Z,95.70
2019-02-11T13:20:55.499Z,96.00
2019-02-11T13:25:07.688Z,96.00
2019-02-11T13:29:16.001Z,96.00
2019-02-11T13:33:22.933Z,95.90
2019-02-11T13:37:31.824Z,96.40
2019-02-11T13:41:39.672Z,95.90
2019-02-11T13:45:49.106Z,96.10
2019-02-11T13:49:55.601Z,97.80
2019-02-11T13:54:01.943Z,96.40
2019-02-11T13:58:08.657Z,96.20
2019-02-11T14:02:41.693Z,96.60
2019-02-11T14:06:48.342Z,96.70
2019-02-11T14:10:55.980Z,96.70
2019-02-11T14:15:04.867Z,97.00
2019-02-11T14:19:13.527Z,96.80
2019-02-11T14:23:20.167Z,96.70
2019-02-11T14:27:26.697Z,97.40
2019-02-11T14:31:36.424Z,97.50
2019-02-11T14:35:43.985Z,98.10
2019-02-11T14:43:56.315Z,99.60
2019-02-11T14:48:03.154Z,97.80
2019-02-11T14:52:13.000Z,98.10
2019-02-11T14:56:15.777Z,98.40
2019-02-11T15:00:25.237Z,98.50
2019-02-11T15:08:39.700Z,98.40
2019-02-11T15:12:46.110Z,98.10
2019-02-11T15:16:53.807Z,98.10
2019-02-11T15:21:00.103Z,97.90
2019-02-11T15:25:10.052Z,97.80
2019-02-11T15:29:18.741Z,97.90
2019-02-11T15:33:25.294Z,97.50
2019-02-11T15:37:33.820Z,97.40
2019-02-11T15:41:41.417Z,97.40
2019-02-11T15:45:47.829Z,96.90
2019-02-11T15:49:56.273Z,96.90
2019-02-11T15:54:02.755Z,96.90
2019-02-11T15:58:09.744Z,96.60
2019-02-11T16:02:14.654Z,96.70
2019-02-11T16:06:21.179Z,97.10
2019-02-11T16:10:28.192Z,96.40
2019-02-11T16:14:38.864Z,96.40
2019-02-11T16:18:51.839Z,95.90
2019-02-11T16:22:56.411Z,95.80
2019-02-11T16:27:02.825Z,95.80
2019-02-11T16:31:13.322Z,95.60
2019-02-11T16:35:19.662Z,95.60
2019-02-11T16:39:26.586Z,95.50
2019-02-11T16:43:35.603Z,95.50
2019-02-11T16:47:45.025Z,95.30
2019-02-11T16:51:52.606Z,95.40
2019-02-11T16:56:00.044Z,95.60
2019-02-11T17:00:07.784Z,95.40
2019-02-11T17:04:15.065Z,95.50
2019-02-11T17:08:18.911Z,94.70
2019-02-11T17:12:25.524Z,96.10
2019-02-11T17:16:31.924Z,96.10
2019-02-11T17:20:45.978Z,96.40
2019-02-11T17:24:52.661Z,96.70
2019-02-11T17:29:00.184Z,97.20
2019-02-11T17:33:06.563Z,97.50
2019-02-11T17:41:22.707Z,97.60
2019-02-11T17:45:31.524Z,97.20
2019-02-11T17:49:38.652Z,97.20
2019-02-11T17:53:45.767Z,97.40
2019-02-11T17:57:52.295Z,97.20
2019-02-11T18:02:00.753Z,96.90
2019-02-11T18:06:07.130Z,97.00
2019-02-11T18:10:16.735Z,97.20
2019-02-11T18:14:27.134Z,97.30
2019-02-11T18:18:33.971Z,96.60
2019-02-11T18:23:01.516Z,96.40
2019-02-11T18:27:10.661Z,96.50
2019-02-11T18:31:19.131Z,96.30
2019-02-11T18:35:26.031Z,96.40
2019-02-11T18:39:32.535Z,96.60
2019-02-11T18:43:41.677Z,96.40
2019-02-11T18:47:48.069Z,96.10
2019-02-11T18:51:54.844Z,96.10
2019-02-11T18:56:01.598Z,96.00
2019-02-11T19:00:09.315Z,96.10
2019-02-11T19:04:39.877Z,96.00
2019-02-11T19:08:46.920Z,95.90
2019-02-11T19:12:53.298Z,95.70
2019-02-11T19:17:02.208Z,95.70
2019-02-11T19:21:08.575Z,96.20
2019-02-11T19:29:23.691Z,96.40
2019-02-11T19:33:30.790Z,96.40
2019-02-11T19:37:59.407Z,96.60
2019-02-11T19:42:07.321Z,96.80
2019-02-11T19:46:13.677Z,96.80
2019-02-11T19:50:42.087Z,96.70
2019-02-11T19:54:50.192Z,96.90
2019-02-11T19:58:58.192Z,96.70
2019-02-11T20:03:05.044Z,96.80
2019-02-11T20:07:13.904Z,96.80
2019-02-11T20:11:41.587Z,97.60
2019-02-11T20:15:48.498Z,98.20
2019-02-11T20:20:00.140Z,98.40
2019-02-11T20:24:04.322Z,98.40
2019-02-11T20:28:10.808Z,98.50
2019-02-11T20:32:18.097Z,98.70
2019-02-11T20:36:24.871Z,98.90
2019-02-11T20:40:33.008Z,98.70
2019-02-11T20:44:40.896Z,99.00
2019-02-11T20:48:48.280Z,98.90
2019-02-11T20:57:45.240Z,98.90
2019-02-11T21:01:51.551Z,98.90
2019-02-11T21:06:01.209Z,99.20
2019-02-11T21:10:08.556Z,99.10
2019-02-11T21:14:16.790Z,99.30
2019-02-11T21:18:23.234Z,99.70
2019-02-11T21:22:33.692Z,99.50
2019-02-11T21:27:01.161Z,99.70
2019-02-11T21:31:07.722Z,99.80
2019-02-11T21:35:14.155Z,99.80
2019-02-11T21:39:43.046Z,99.90
2019-02-11T21:43:51.422Z,99.90
2019-02-11T21:47:59.096Z,99.90
2019-02-11T21:52:05.478Z,99.90
2019-02-11T21:56:13.028Z,99.90
2019-02-11T22:00:19.919Z,99.90
2019-02-11T22:04:26.258Z,99.90
2019-02-11T22:08:32.657Z,99.90
2019-02-11T22:12:40.136Z,99.90
2019-02-11T22:16:48.006Z,99.90
2019-02-11T22:20:55.429Z,99.90
2019-02-11T22:25:26.304Z,99.90
2019-02-11T22:29:33.899Z,99.90
2019-02-11T22:33:40.315Z,99.90
2019-02-11T22:37:50.270Z,99.90
2019-02-11T22:41:56.560Z,99.90
2019-02-11T22:46:05.392Z,99.90
2019-02-11T22:50:12.243Z,99.90
2019-02-11T22:54:18.847Z,99.90
2019-02-11T22:58:46.423Z,99.90
2019-02-11T23:02:53.471Z,99.90
2019-02-11T23:07:00.147Z,99.90
2019-02-11T23:11:10.179Z,99.90
2019-02-11T23:15:19.599Z,99.90
2019-02-11T23:19:26.549Z,99.90
2019-02-11T23:23:33.203Z,99.90
2019-02-11T23:27:43.406Z,99.90
2019-02-11T23:31:50.011Z,99.90
2019-02-11T23:35:58.445Z,99.90
2019-02-11T23:40:07.289Z,99.90
2019-02-11T23:44:13.732Z,99.90
2019-02-11T23:48:20.410Z,99.90
2019-02-11T23:52:29.446Z,99.90
2019-02-11T23:56:35.852Z,99.90
